sensor_id;sensor_type;location;lat;lon;timestamp;P1;durP1;ratioP1;P2;durP2;ratioP2
19780;SDS011;10050;55.492;13.506;2023-02-11T00:00:33;10.93;;;3.70;;
19780;SDS011;10050;55.492;13.506;2023-02-11T00:02:59;13.03;;;4.27;;
19780;SDS011;10050;55.492;13.506;2023-02-11T00:05:25;8.57;;;3.77;;
19780;SDS011;10050;55.492;13.506;2023-02-11T00:07:50;12.00;;;4.03;;
19780;SDS011;10050;55.492;13.506;2023-02-11T00:10:16;14.07;;;4.27;;
19780;SDS011;10050;55.492;13.506;2023-02-11T00:12:41;14.80;;;4.47;;
19780;SDS011;10050;55.492;13.506;2023-02-11T00:15:07;12.53;;;4.43;;
19780;SDS011;10050;55.492;13.506;2023-02-11T00:17:34;13.97;;;4.50;;
19780;SDS011;10050;55.492;13.506;2023-02-11T00:19:59;10.70;;;4.10;;
19780;SDS011;10050;55.492;13.506;2023-02-11T00:22:25;14.70;;;4.37;;
19780;SDS011;10050;55.492;13.506;2023-02-11T00:24:51;12.43;;;4.33;;
19780;SDS011;10050;55.492;13.506;2023-02-11T00:27:16;12.23;;;4.40;;
19780;SDS011;10050;55.492;13.506;2023-02-11T00:29:42;15.90;;;4.90;;
19780;SDS011;10050;55.492;13.506;2023-02-11T00:32:08;16.67;;;5.43;;
19780;SDS011;10050;55.492;13.506;2023-02-11T00:34:34;14.97;;;4.93;;
19780;SDS011;10050;55.492;13.506;2023-02-11T00:37:00;13.07;;;4.93;;
19780;SDS011;10050;55.492;13.506;2023-02-11T00:39:27;18.40;;;5.53;;
19780;SDS011;10050;55.492;13.506;2023-02-11T00:41:52;10.70;;;4.67;;
19780;SDS011;10050;55.492;13.506;2023-02-11T00:44:18;17.53;;;6.50;;
19780;SDS011;10050;55.492;13.506;2023-02-11T00:46:43;21.00;;;6.13;;
19780;SDS011;10050;55.492;13.506;2023-02-11T00:49:09;14.40;;;5.40;;
19780;SDS011;10050;55.492;13.506;2023-02-11T00:51:35;19.20;;;5.97;;
19780;SDS011;10050;55.492;13.506;2023-02-11T00:54:01;17.87;;;6.20;;
19780;SDS011;10050;55.492;13.506;2023-02-11T00:56:28;17.23;;;5.30;;
19780;SDS011;10050;55.492;13.506;2023-02-11T00:58:53;12.90;;;5.30;;
19780;SDS011;10050;55.492;13.506;2023-02-11T01:01:19;22.37;;;6.37;;
19780;SDS011;10050;55.492;13.506;2023-02-11T01:03:45;17.70;;;5.70;;
19780;SDS011;10050;55.492;13.506;2023-02-11T01:06:11;11.03;;;5.30;;
19780;SDS011;10050;55.492;13.506;2023-02-11T01:08:37;20.90;;;6.43;;
19780;SDS011;10050;55.492;13.506;2023-02-11T01:11:04;21.47;;;6.53;;
19780;SDS011;10050;55.492;13.506;2023-02-11T01:13:32;21.10;;;6.97;;
19780;SDS011;10050;55.492;13.506;2023-02-11T01:15:58;17.97;;;5.83;;
19780;SDS011;10050;55.492;13.506;2023-02-11T01:18:25;23.57;;;6.23;;
19780;SDS011;10050;55.492;13.506;2023-02-11T01:20:52;25.87;;;7.40;;
19780;SDS011;10050;55.492;13.506;2023-02-11T01:23:18;24.60;;;7.30;;
19780;SDS011;10050;55.492;13.506;2023-02-11T01:25:44;20.07;;;6.60;;
19780;SDS011;10050;55.492;13.506;2023-02-11T01:28:43;18.60;;;6.27;;
19780;SDS011;10050;55.492;13.506;2023-02-11T01:31:02;25.03;;;7.13;;
19780;SDS011;10050;55.492;13.506;2023-02-11T01:33:28;28.60;;;7.50;;
19780;SDS011;10050;55.492;13.506;2023-02-11T01:35:54;21.53;;;7.83;;
19780;SDS011;10050;55.492;13.506;2023-02-11T01:38:23;22.30;;;7.20;;
19780;SDS011;10050;55.492;13.506;2023-02-11T01:40:54;23.50;;;9.50;;
19780;SDS011;10050;55.492;13.506;2023-02-11T01:43:22;31.93;;;8.63;;
19780;SDS011;10050;55.492;13.506;2023-02-11T01:45:56;28.77;;;9.13;;
19780;SDS011;10050;55.492;13.506;2023-02-11T01:48:29;26.60;;;8.07;;
19780;SDS011;10050;55.492;13.506;2023-02-11T01:51:33;23.50;;;8.57;;
19780;SDS011;10050;55.492;13.506;2023-02-11T01:53:54;27.90;;;8.20;;
19780;SDS011;10050;55.492;13.506;2023-02-11T01:56:41;24.50;;;8.80;;
19780;SDS011;10050;55.492;13.506;2023-02-11T01:59:30;29.07;;;8.67;;
19780;SDS011;10050;55.492;13.506;2023-02-11T02:02:06;26.90;;;7.63;;
19780;SDS011;10050;55.492;13.506;2023-02-11T02:04:39;30.23;;;8.13;;
19780;SDS011;10050;55.492;13.506;2023-02-11T02:07:40;28.00;;;7.87;;
19780;SDS011;10050;55.492;13.506;2023-02-11T02:10:27;19.10;;;7.30;;
19780;SDS011;10050;55.492;13.506;2023-02-11T02:12:54;27.30;;;8.57;;
19780;SDS011;10050;55.492;13.506;2023-02-11T02:15:21;23.10;;;8.00;;
19780;SDS011;10050;55.492;13.506;2023-02-11T02:18:04;29.40;;;8.90;;
19780;SDS011;10050;55.492;13.506;2023-02-11T02:23:24;33.37;;;9.00;;
19780;SDS011;10050;55.492;13.506;2023-02-11T02:26:05;23.00;;;8.07;;
19780;SDS011;10050;55.492;13.506;2023-02-11T02:28:54;20.33;;;7.53;;
19780;SDS011;10050;55.492;13.506;2023-02-11T02:34:49;34.10;;;7.37;;
19780;SDS011;10050;55.492;13.506;2023-02-11T02:37:23;27.40;;;7.17;;
19780;SDS011;10050;55.492;13.506;2023-02-11T02:39:56;29.47;;;7.17;;
19780;SDS011;10050;55.492;13.506;2023-02-11T02:42:26;25.87;;;8.13;;
19780;SDS011;10050;55.492;13.506;2023-02-11T02:44:52;32.00;;;7.87;;
19780;SDS011;10050;55.492;13.506;2023-02-11T02:47:20;27.87;;;7.80;;
19780;SDS011;10050;55.492;13.506;2023-02-11T02:49:45;23.13;;;7.13;;
19780;SDS011;10050;55.492;13.506;2023-02-11T02:52:15;30.07;;;7.60;;
19780;SDS011;10050;55.492;13.506;2023-02-11T03:03:05;25.47;;;6.30;;
19780;SDS011;10050;55.492;13.506;2023-02-11T03:05:30;26.07;;;6.80;;
19780;SDS011;10050;55.492;13.506;2023-02-11T03:08:28;24.57;;;6.10;;
19780;SDS011;10050;55.492;13.506;2023-02-11T03:11:01;25.90;;;6.57;;
19780;SDS011;10050;55.492;13.506;2023-02-11T03:13:29;21.53;;;6.77;;
19780;SDS011;10050;55.492;13.506;2023-02-11T03:16:01;24.00;;;5.87;;
19780;SDS011;10050;55.492;13.506;2023-02-11T03:18:32;24.20;;;6.67;;
19780;SDS011;10050;55.492;13.506;2023-02-11T03:21:00;18.47;;;5.23;;
19780;SDS011;10050;55.492;13.506;2023-02-11T03:23:29;26.87;;;6.17;;
19780;SDS011;10050;55.492;13.506;2023-02-11T03:26:02;31.03;;;6.20;;
19780;SDS011;10050;55.492;13.506;2023-02-11T03:31:44;23.63;;;5.57;;
19780;SDS011;10050;55.492;13.506;2023-02-11T03:37:18;27.67;;;5.80;;
19780;SDS011;10050;55.492;13.506;2023-02-11T03:39:54;24.50;;;4.90;;
19780;SDS011;10050;55.492;13.506;2023-02-11T03:42:26;17.93;;;4.90;;
19780;SDS011;10050;55.492;13.506;2023-02-11T03:45:02;23.73;;;4.53;;
19780;SDS011;10050;55.492;13.506;2023-02-11T03:47:31;24.53;;;5.67;;
19780;SDS011;10050;55.492;13.506;2023-02-11T03:50:02;20.70;;;4.33;;
19780;SDS011;10050;55.492;13.506;2023-02-11T03:52:30;18.50;;;4.77;;
19780;SDS011;10050;55.492;13.506;2023-02-11T03:54:56;23.40;;;5.17;;
19780;SDS011;10050;55.492;13.506;2023-02-11T03:57:25;18.63;;;4.73;;
19780;SDS011;10050;55.492;13.506;2023-02-11T04:02:26;21.90;;;4.50;;
19780;SDS011;10050;55.492;13.506;2023-02-11T04:04:55;17.20;;;4.13;;
19780;SDS011;10050;55.492;13.506;2023-02-11T04:07:22;17.27;;;4.20;;
19780;SDS011;10050;55.492;13.506;2023-02-11T04:09:48;22.40;;;4.00;;
19780;SDS011;10050;55.492;13.506;2023-02-11T04:12:13;26.50;;;4.53;;
19780;SDS011;10050;55.492;13.506;2023-02-11T04:14:39;35.50;;;5.20;;
19780;SDS011;10050;55.492;13.506;2023-02-11T04:17:05;18.93;;;4.43;;
19780;SDS011;10050;55.492;13.506;2023-02-11T04:19:30;25.47;;;4.10;;
19780;SDS011;10050;55.492;13.506;2023-02-11T04:21:56;26.10;;;4.47;;
19780;SDS011;10050;55.492;13.506;2023-02-11T04:24:22;21.63;;;4.37;;
19780;SDS011;10050;55.492;13.506;2023-02-11T04:26:48;26.17;;;4.90;;
19780;SDS011;10050;55.492;13.506;2023-02-11T04:29:14;23.90;;;4.60;;
19780;SDS011;10050;55.492;13.506;2023-02-11T04:31:39;17.70;;;4.83;;
19780;SDS011;10050;55.492;13.506;2023-02-11T04:34:05;27.60;;;5.30;;
19780;SDS011;10050;55.492;13.506;2023-02-11T04:36:30;19.90;;;4.77;;
19780;SDS011;10050;55.492;13.506;2023-02-11T04:38:56;19.50;;;4.67;;
19780;SDS011;10050;55.492;13.506;2023-02-11T04:41:22;20.03;;;3.90;;
19780;SDS011;10050;55.492;13.506;2023-02-11T04:43:47;22.67;;;4.80;;
19780;SDS011;10050;55.492;13.506;2023-02-11T04:46:13;19.33;;;3.73;;
19780;SDS011;10050;55.492;13.506;2023-02-11T04:48:39;14.53;;;4.07;;
19780;SDS011;10050;55.492;13.506;2023-02-11T04:51:04;24.40;;;4.67;;
19780;SDS011;10050;55.492;13.506;2023-02-11T04:53:30;16.10;;;4.23;;
19780;SDS011;10050;55.492;13.506;2023-02-11T04:55:56;21.80;;;4.87;;
19780;SDS011;10050;55.492;13.506;2023-02-11T04:58:21;24.17;;;5.17;;
19780;SDS011;10050;55.492;13.506;2023-02-11T05:00:48;17.57;;;3.90;;
19780;SDS011;10050;55.492;13.506;2023-02-11T05:03:14;17.93;;;3.53;;
19780;SDS011;10050;55.492;13.506;2023-02-11T05:05:40;17.63;;;4.07;;
19780;SDS011;10050;55.492;13.506;2023-02-11T05:08:07;17.60;;;3.47;;
19780;SDS011;10050;55.492;13.506;2023-02-11T05:10:33;16.27;;;3.43;;
19780;SDS011;10050;55.492;13.506;2023-02-11T05:12:59;21.00;;;3.57;;
19780;SDS011;10050;55.492;13.506;2023-02-11T05:15:26;13.00;;;3.50;;
19780;SDS011;10050;55.492;13.506;2023-02-11T05:17:52;20.30;;;4.30;;
19780;SDS011;10050;55.492;13.506;2023-02-11T05:20:17;15.30;;;3.47;;
19780;SDS011;10050;55.492;13.506;2023-02-11T05:22:43;21.03;;;4.20;;
19780;SDS011;10050;55.492;13.506;2023-02-11T05:25:09;15.73;;;4.17;;
19780;SDS011;10050;55.492;13.506;2023-02-11T05:27:35;12.23;;;2.70;;
19780;SDS011;10050;55.492;13.506;2023-02-11T05:30:00;15.83;;;3.60;;
19780;SDS011;10050;55.492;13.506;2023-02-11T05:32:26;15.73;;;3.33;;
19780;SDS011;10050;55.492;13.506;2023-02-11T05:34:52;11.77;;;2.47;;
19780;SDS011;10050;55.492;13.506;2023-02-11T05:37:18;15.23;;;3.07;;
19780;SDS011;10050;55.492;13.506;2023-02-11T05:39:43;12.37;;;2.63;;
19780;SDS011;10050;55.492;13.506;2023-02-11T05:42:09;12.90;;;3.27;;
19780;SDS011;10050;55.492;13.506;2023-02-11T05:44:35;12.23;;;3.20;;
19780;SDS011;10050;55.492;13.506;2023-02-11T05:47:01;14.17;;;3.57;;
19780;SDS011;10050;55.492;13.506;2023-02-11T05:49:26;13.30;;;2.60;;
19780;SDS011;10050;55.492;13.506;2023-02-11T05:51:52;15.47;;;2.87;;
19780;SDS011;10050;55.492;13.506;2023-02-11T05:54:17;14.47;;;2.97;;
19780;SDS011;10050;55.492;13.506;2023-02-11T05:56:43;18.23;;;3.03;;
19780;SDS011;10050;55.492;13.506;2023-02-11T05:59:10;10.47;;;2.50;;
19780;SDS011;10050;55.492;13.506;2023-02-11T06:01:39;19.73;;;2.97;;
19780;SDS011;10050;55.492;13.506;2023-02-11T06:04:05;12.27;;;2.93;;
19780;SDS011;10050;55.492;13.506;2023-02-11T06:06:30;17.07;;;3.00;;
19780;SDS011;10050;55.492;13.506;2023-02-11T06:08:56;14.23;;;2.83;;
19780;SDS011;10050;55.492;13.506;2023-02-11T06:11:22;12.20;;;3.60;;
19780;SDS011;10050;55.492;13.506;2023-02-11T06:13:47;14.97;;;3.63;;
19780;SDS011;10050;55.492;13.506;2023-02-11T06:16:13;10.33;;;3.07;;
19780;SDS011;10050;55.492;13.506;2023-02-11T06:18:39;19.97;;;2.97;;
19780;SDS011;10050;55.492;13.506;2023-02-11T06:21:08;7.93;;;2.33;;
19780;SDS011;10050;55.492;13.506;2023-02-11T06:23:34;15.83;;;2.53;;
19780;SDS011;10050;55.492;13.506;2023-02-11T06:26:04;12.93;;;2.67;;
19780;SDS011;10050;55.492;13.506;2023-02-11T06:28:31;12.90;;;2.43;;
19780;SDS011;10050;55.492;13.506;2023-02-11T06:31:03;13.80;;;2.67;;
19780;SDS011;10050;55.492;13.506;2023-02-11T06:33:30;12.50;;;2.27;;
19780;SDS011;10050;55.492;13.506;2023-02-11T06:35:56;10.87;;;2.20;;
19780;SDS011;10050;55.492;13.506;2023-02-11T06:38:21;9.80;;;1.93;;
19780;SDS011;10050;55.492;13.506;2023-02-11T06:40:47;8.83;;;2.30;;
19780;SDS011;10050;55.492;13.506;2023-02-11T06:43:14;19.37;;;2.80;;
19780;SDS011;10050;55.492;13.506;2023-02-11T06:45:40;8.50;;;2.00;;
19780;SDS011;10050;55.492;13.506;2023-02-11T06:48:06;10.00;;;2.10;;
19780;SDS011;10050;55.492;13.506;2023-02-11T06:50:32;15.30;;;3.10;;
19780;SDS011;10050;55.492;13.506;2023-02-11T06:52:58;17.80;;;2.80;;
19780;SDS011;10050;55.492;13.506;2023-02-11T06:55:24;9.60;;;2.47;;
19780;SDS011;10050;55.492;13.506;2023-02-11T06:57:50;10.57;;;2.40;;
19780;SDS011;10050;55.492;13.506;2023-02-11T07:00:15;15.13;;;3.00;;
19780;SDS011;10050;55.492;13.506;2023-02-11T07:02:41;11.43;;;2.43;;
19780;SDS011;10050;55.492;13.506;2023-02-11T07:05:07;14.83;;;2.97;;
19780;SDS011;10050;55.492;13.506;2023-02-11T07:07:33;10.53;;;2.47;;
19780;SDS011;10050;55.492;13.506;2023-02-11T07:09:59;7.53;;;2.13;;
19780;SDS011;10050;55.492;13.506;2023-02-11T07:12:26;14.97;;;3.13;;
19780;SDS011;10050;55.492;13.506;2023-02-11T07:14:52;15.07;;;2.80;;
19780;SDS011;10050;55.492;13.506;2023-02-11T07:17:19;15.10;;;2.87;;
19780;SDS011;10050;55.492;13.506;2023-02-11T07:19:45;9.37;;;2.40;;
19780;SDS011;10050;55.492;13.506;2023-02-11T07:22:10;13.13;;;2.67;;
19780;SDS011;10050;55.492;13.506;2023-02-11T07:24:36;13.63;;;2.63;;
19780;SDS011;10050;55.492;13.506;2023-02-11T07:27:02;10.50;;;2.87;;
19780;SDS011;10050;55.492;13.506;2023-02-11T07:29:28;10.47;;;2.80;;
19780;SDS011;10050;55.492;13.506;2023-02-11T07:31:54;15.27;;;3.00;;
19780;SDS011;10050;55.492;13.506;2023-02-11T07:34:19;15.37;;;2.47;;
19780;SDS011;10050;55.492;13.506;2023-02-11T07:36:45;10.27;;;2.43;;
19780;SDS011;10050;55.492;13.506;2023-02-11T07:39:12;9.67;;;2.20;;
19780;SDS011;10050;55.492;13.506;2023-02-11T07:41:38;14.30;;;2.43;;
19780;SDS011;10050;55.492;13.506;2023-02-11T07:44:04;14.50;;;2.50;;
19780;SDS011;10050;55.492;13.506;2023-02-11T07:46:30;5.90;;;2.57;;
19780;SDS011;10050;55.492;13.506;2023-02-11T07:48:58;13.17;;;2.57;;
19780;SDS011;10050;55.492;13.506;2023-02-11T07:51:25;12.27;;;2.97;;
19780;SDS011;10050;55.492;13.506;2023-02-11T07:53:53;15.43;;;2.57;;
19780;SDS011;10050;55.492;13.506;2023-02-11T07:56:19;17.77;;;2.73;;
19780;SDS011;10050;55.492;13.506;2023-02-11T07:58:46;15.00;;;2.87;;
19780;SDS011;10050;55.492;13.506;2023-02-11T08:01:14;13.90;;;2.73;;
19780;SDS011;10050;55.492;13.506;2023-02-11T08:03:41;13.27;;;2.47;;
19780;SDS011;10050;55.492;13.506;2023-02-11T08:06:11;8.60;;;2.90;;
19780;SDS011;10050;55.492;13.506;2023-02-11T08:08:39;11.63;;;2.47;;
19780;SDS011;10050;55.492;13.506;2023-02-11T08:11:06;11.47;;;2.63;;
19780;SDS011;10050;55.492;13.506;2023-02-11T08:13:31;14.43;;;2.50;;
19780;SDS011;10050;55.492;13.506;2023-02-11T08:15:57;12.37;;;2.67;;
19780;SDS011;10050;55.492;13.506;2023-02-11T08:18:23;11.37;;;3.23;;
19780;SDS011;10050;55.492;13.506;2023-02-11T08:20:49;16.07;;;2.53;;
19780;SDS011;10050;55.492;13.506;2023-02-11T08:23:14;9.37;;;2.57;;
19780;SDS011;10050;55.492;13.506;2023-02-11T08:25:40;10.90;;;2.23;;
19780;SDS011;10050;55.492;13.506;2023-02-11T08:28:05;13.50;;;2.53;;
19780;SDS011;10050;55.492;13.506;2023-02-11T08:30:33;8.87;;;2.70;;
19780;SDS011;10050;55.492;13.506;2023-02-11T08:32:59;18.30;;;3.80;;
19780;SDS011;10050;55.492;13.506;2023-02-11T08:35:24;9.57;;;3.30;;
19780;SDS011;10050;55.492;13.506;2023-02-11T08:37:50;15.53;;;3.27;;
19780;SDS011;10050;55.492;13.506;2023-02-11T08:40:17;7.67;;;1.77;;
19780;SDS011;10050;55.492;13.506;2023-02-11T08:42:42;8.57;;;1.77;;
19780;SDS011;10050;55.492;13.506;2023-02-11T08:45:08;9.00;;;1.97;;
19780;SDS011;10050;55.492;13.506;2023-02-11T08:47:35;9.47;;;2.20;;
19780;SDS011;10050;55.492;13.506;2023-02-11T08:50:01;7.50;;;2.47;;
19780;SDS011;10050;55.492;13.506;2023-02-11T08:52:27;10.63;;;2.13;;
19780;SDS011;10050;55.492;13.506;2023-02-11T08:54:52;7.90;;;2.10;;
19780;SDS011;10050;55.492;13.506;2023-02-11T08:57:18;12.23;;;2.40;;
19780;SDS011;10050;55.492;13.506;2023-02-11T08:59:44;8.97;;;2.10;;
19780;SDS011;10050;55.492;13.506;2023-02-11T09:02:12;15.17;;;3.13;;
19780;SDS011;10050;55.492;13.506;2023-02-11T09:04:38;15.37;;;2.60;;
19780;SDS011;10050;55.492;13.506;2023-02-11T09:07:04;10.23;;;2.10;;
19780;SDS011;10050;55.492;13.506;2023-02-11T09:09:30;11.33;;;2.60;;
19780;SDS011;10050;55.492;13.506;2023-02-11T09:11:56;12.50;;;2.63;;
19780;SDS011;10050;55.492;13.506;2023-02-11T09:14:22;10.07;;;2.70;;
19780;SDS011;10050;55.492;13.506;2023-02-11T09:16:49;10.20;;;2.40;;
19780;SDS011;10050;55.492;13.506;2023-02-11T09:19:16;7.40;;;2.03;;
19780;SDS011;10050;55.492;13.506;2023-02-11T09:21:42;9.87;;;2.47;;
19780;SDS011;10050;55.492;13.506;2023-02-11T09:24:08;9.37;;;2.37;;
19780;SDS011;10050;55.492;13.506;2023-02-11T09:26:34;9.70;;;2.57;;
19780;SDS011;10050;55.492;13.506;2023-02-11T09:29:02;15.73;;;2.80;;
19780;SDS011;10050;55.492;13.506;2023-02-11T09:31:31;9.03;;;2.37;;
19780;SDS011;10050;55.492;13.506;2023-02-11T09:33:58;12.00;;;2.73;;
19780;SDS011;10050;55.492;13.506;2023-02-11T09:36:26;14.90;;;2.87;;
19780;SDS011;10050;55.492;13.506;2023-02-11T09:38:54;11.60;;;2.57;;
19780;SDS011;10050;55.492;13.506;2023-02-11T09:43:53;11.67;;;2.80;;
19780;SDS011;10050;55.492;13.506;2023-02-11T09:46:21;16.47;;;2.73;;
19780;SDS011;10050;55.492;13.506;2023-02-11T09:48:49;13.87;;;2.97;;
19780;SDS011;10050;55.492;13.506;2023-02-11T09:53:55;18.27;;;3.27;;
19780;SDS011;10050;55.492;13.506;2023-02-11T09:56:25;11.10;;;2.40;;
19780;SDS011;10050;55.492;13.506;2023-02-11T09:58:52;16.03;;;3.10;;
19780;SDS011;10050;55.492;13.506;2023-02-11T10:01:36;14.38;;;2.78;;
19780;SDS011;10050;55.492;13.506;2023-02-11T10:10:21;14.10;;;3.10;;
19780;SDS011;10050;55.492;13.506;2023-02-11T10:13:19;21.90;;;3.80;;
19780;SDS011;10050;55.492;13.506;2023-02-11T10:15:51;15.27;;;3.35;;
19780;SDS011;10050;55.492;13.506;2023-02-11T10:24:02;12.35;;;3.50;;
19780;SDS011;10050;55.492;13.506;2023-02-11T10:26:34;13.27;;;3.67;;
19780;SDS011;10050;55.492;13.506;2023-02-11T10:29:02;16.48;;;3.63;;
19780;SDS011;10050;55.492;13.506;2023-02-11T10:31:39;18.17;;;3.47;;
19780;SDS011;10050;55.492;13.506;2023-02-11T10:34:11;17.47;;;3.97;;
19780;SDS011;10050;55.492;13.506;2023-02-11T10:36:39;15.50;;;3.10;;
19780;SDS011;10050;55.492;13.506;2023-02-11T10:39:14;14.63;;;3.30;;
19780;SDS011;10050;55.492;13.506;2023-02-11T10:42:04;14.33;;;3.23;;
19780;SDS011;10050;55.492;13.506;2023-02-11T10:44:31;17.53;;;3.57;;
19780;SDS011;10050;55.492;13.506;2023-02-11T10:47:04;14.33;;;3.27;;
19780;SDS011;10050;55.492;13.506;2023-02-11T10:49:41;14.87;;;3.67;;
19780;SDS011;10050;55.492;13.506;2023-02-11T10:52:29;17.23;;;3.83;;
19780;SDS011;10050;55.492;13.506;2023-02-11T10:54:56;14.40;;;4.17;;
19780;SDS011;10050;55.492;13.506;2023-02-11T10:57:29;14.50;;;3.73;;
19780;SDS011;10050;55.492;13.506;2023-02-11T11:00:19;14.93;;;3.40;;
19780;SDS011;10050;55.492;13.506;2023-02-11T11:02:57;19.77;;;4.07;;
19780;SDS011;10050;55.492;13.506;2023-02-11T11:05:35;18.20;;;3.93;;
19780;SDS011;10050;55.492;13.506;2023-02-11T11:08:10;15.33;;;3.83;;
19780;SDS011;10050;55.492;13.506;2023-02-11T11:10:43;21.13;;;3.87;;
19780;SDS011;10050;55.492;13.506;2023-02-11T11:13:28;17.70;;;4.10;;
19780;SDS011;10050;55.492;13.506;2023-02-11T11:18:37;15.03;;;2.87;;
19780;SDS011;10050;55.492;13.506;2023-02-11T11:21:04;24.03;;;4.33;;
19780;SDS011;10050;55.492;13.506;2023-02-11T11:23:36;19.00;;;4.10;;
19780;SDS011;10050;55.492;13.506;2023-02-11T11:26:10;18.47;;;3.77;;
19780;SDS011;10050;55.492;13.506;2023-02-11T11:28:39;14.27;;;3.87;;
19780;SDS011;10050;55.492;13.506;2023-02-11T11:31:14;17.40;;;4.00;;
19780;SDS011;10050;55.492;13.506;2023-02-11T11:34:47;19.77;;;4.33;;
19780;SDS011;10050;55.492;13.506;2023-02-11T11:37:10;24.07;;;4.70;;
19780;SDS011;10050;55.492;13.506;2023-02-11T11:39:39;22.40;;;4.97;;
19780;SDS011;10050;55.492;13.506;2023-02-11T11:42:20;23.53;;;4.67;;
19780;SDS011;10050;55.492;13.506;2023-02-11T11:44:59;16.53;;;4.00;;
19780;SDS011;10050;55.492;13.506;2023-02-11T11:50:25;20.43;;;4.10;;
19780;SDS011;10050;55.492;13.506;2023-02-11T11:58:21;21.30;;;4.43;;
19780;SDS011;10050;55.492;13.506;2023-02-11T12:08:59;17.13;;;4.03;;
19780;SDS011;10050;55.492;13.506;2023-02-11T12:11:53;15.47;;;4.40;;
19780;SDS011;10050;55.492;13.506;2023-02-11T12:14:42;20.20;;;4.77;;
19780;SDS011;10050;55.492;13.506;2023-02-11T12:17:21;22.23;;;4.13;;
19780;SDS011;10050;55.492;13.506;2023-02-11T12:26:16;24.33;;;5.40;;
19780;SDS011;10050;55.492;13.506;2023-02-11T12:29:02;21.13;;;4.07;;
19780;SDS011;10050;55.492;13.506;2023-02-11T12:34:48;21.37;;;5.10;;
19780;SDS011;10050;55.492;13.506;2023-02-11T12:42:30;22.50;;;5.20;;
19780;SDS011;10050;55.492;13.506;2023-02-11T12:51:04;21.73;;;4.70;;
19780;SDS011;10050;55.492;13.506;2023-02-11T12:53:43;20.83;;;4.37;;
19780;SDS011;10050;55.492;13.506;2023-02-11T12:56:31;24.03;;;5.77;;
19780;SDS011;10050;55.492;13.506;2023-02-11T12:59:05;22.37;;;4.70;;
19780;SDS011;10050;55.492;13.506;2023-02-11T13:02:03;17.60;;;4.60;;
19780;SDS011;10050;55.492;13.506;2023-02-11T13:04:55;20.93;;;4.97;;
19780;SDS011;10050;55.492;13.506;2023-02-11T13:07:30;22.67;;;5.03;;
19780;SDS011;10050;55.492;13.506;2023-02-11T13:10:02;18.73;;;3.77;;
19780;SDS011;10050;55.492;13.506;2023-02-11T13:12:44;20.47;;;4.17;;
19780;SDS011;10050;55.492;13.506;2023-02-11T13:15:31;30.20;;;6.17;;
19780;SDS011;10050;55.492;13.506;2023-02-11T13:18:04;24.23;;;4.67;;
19780;SDS011;10050;55.492;13.506;2023-02-11T13:21:04;22.13;;;4.30;;
19780;SDS011;10050;55.492;13.506;2023-02-11T13:28:47;19.60;;;4.97;;
19780;SDS011;10050;55.492;13.506;2023-02-11T13:31:21;21.87;;;4.47;;
19780;SDS011;10050;55.492;13.506;2023-02-11T13:33:51;24.33;;;4.70;;
19780;SDS011;10050;55.492;13.506;2023-02-11T13:39:18;15.07;;;4.97;;
19780;SDS011;10050;55.492;13.506;2023-02-11T13:41:43;18.63;;;4.07;;
19780;SDS011;10050;55.492;13.506;2023-02-11T13:44:18;19.83;;;4.33;;
19780;SDS011;10050;55.492;13.506;2023-02-11T13:49:39;25.87;;;4.70;;
19780;SDS011;10050;55.492;13.506;2023-02-11T13:52:14;20.73;;;5.23;;
19780;SDS011;10050;55.492;13.506;2023-02-11T13:54:48;19.43;;;4.20;;
19780;SDS011;10050;55.492;13.506;2023-02-11T14:05:00;19.93;;;5.07;;
19780;SDS011;10050;55.492;13.506;2023-02-11T14:45:26;28.90;;;5.93;;
19780;SDS011;10050;55.492;13.506;2023-02-11T14:50:23;30.23;;;6.47;;
19780;SDS011;10050;55.492;13.506;2023-02-11T14:52:52;28.73;;;4.77;;
19780;SDS011;10050;55.492;13.506;2023-02-11T14:58:06;21.47;;;5.77;;
19780;SDS011;10050;55.492;13.506;2023-02-11T15:00:35;27.00;;;5.03;;
19780;SDS011;10050;55.492;13.506;2023-02-11T15:03:01;33.20;;;6.20;;
19780;SDS011;10050;55.492;13.506;2023-02-11T15:05:27;28.83;;;5.73;;
19780;SDS011;10050;55.492;13.506;2023-02-11T15:07:54;24.87;;;5.83;;
19780;SDS011;10050;55.492;13.506;2023-02-11T15:10:27;24.20;;;5.47;;
19780;SDS011;10050;55.492;13.506;2023-02-11T15:12:59;21.27;;;5.23;;
19780;SDS011;10050;55.492;13.506;2023-02-11T15:15:26;21.47;;;4.60;;
19780;SDS011;10050;55.492;13.506;2023-02-11T15:17:54;24.37;;;5.80;;
19780;SDS011;10050;55.492;13.506;2023-02-11T15:20:26;18.97;;;4.90;;
19780;SDS011;10050;55.492;13.506;2023-02-11T15:23:04;24.93;;;4.80;;
19780;SDS011;10050;55.492;13.506;2023-02-11T15:25:41;24.93;;;6.27;;
19780;SDS011;10050;55.492;13.506;2023-02-11T15:28:30;24.93;;;5.13;;
19780;SDS011;10050;55.492;13.506;2023-02-11T15:30:58;21.37;;;5.17;;
19780;SDS011;10050;55.492;13.506;2023-02-11T15:33:29;23.57;;;5.90;;
19780;SDS011;10050;55.492;13.506;2023-02-11T15:35:56;17.17;;;5.30;;
19780;SDS011;10050;55.492;13.506;2023-02-11T15:38:23;22.00;;;4.67;;
19780;SDS011;10050;55.492;13.506;2023-02-11T15:40:53;21.33;;;4.90;;
19780;SDS011;10050;55.492;13.506;2023-02-11T15:43:21;18.50;;;5.20;;
19780;SDS011;10050;55.492;13.506;2023-02-11T15:48:18;26.03;;;5.70;;
19780;SDS011;10050;55.492;13.506;2023-02-11T15:50:56;24.33;;;5.43;;
19780;SDS011;10050;55.492;13.506;2023-02-11T15:56:09;19.60;;;5.57;;
19780;SDS011;10050;55.492;13.506;2023-02-11T15:58:40;23.27;;;5.63;;
19780;SDS011;10050;55.492;13.506;2023-02-11T16:01:08;28.67;;;5.80;;
19780;SDS011;10050;55.492;13.506;2023-02-11T16:03:35;25.73;;;6.37;;
19780;SDS011;10050;55.492;13.506;2023-02-11T16:08:58;26.80;;;6.07;;
19780;SDS011;10050;55.492;13.506;2023-02-11T16:11:31;26.37;;;6.23;;
19780;SDS011;10050;55.492;13.506;2023-02-11T16:13:59;30.93;;;6.77;;
19780;SDS011;10050;55.492;13.506;2023-02-11T16:16:32;18.67;;;4.70;;
19780;SDS011;10050;55.492;13.506;2023-02-11T16:18:59;25.73;;;5.60;;
19780;SDS011;10050;55.492;13.506;2023-02-11T16:21:28;30.97;;;6.27;;
19780;SDS011;10050;55.492;13.506;2023-02-11T16:23:57;24.67;;;6.53;;
19780;SDS011;10050;55.492;13.506;2023-02-11T16:26:33;27.93;;;6.37;;
19780;SDS011;10050;55.492;13.506;2023-02-11T16:29:26;23.30;;;5.30;;
19780;SDS011;10050;55.492;13.506;2023-02-11T16:34:41;29.10;;;6.10;;
19780;SDS011;10050;55.492;13.506;2023-02-11T16:37:06;29.73;;;5.73;;
19780;SDS011;10050;55.492;13.506;2023-02-11T16:39:32;26.37;;;5.07;;
19780;SDS011;10050;55.492;13.506;2023-02-11T16:41:58;26.07;;;6.10;;
19780;SDS011;10050;55.492;13.506;2023-02-11T16:44:24;37.00;;;6.10;;
19780;SDS011;10050;55.492;13.506;2023-02-11T16:46:51;25.73;;;5.87;;
19780;SDS011;10050;55.492;13.506;2023-02-11T16:51:42;27.47;;;6.50;;
19780;SDS011;10050;55.492;13.506;2023-02-11T16:54:13;25.70;;;6.17;;
19780;SDS011;10050;55.492;13.506;2023-02-11T16:56:40;28.17;;;7.20;;
19780;SDS011;10050;55.492;13.506;2023-02-11T16:59:06;32.80;;;5.97;;
19780;SDS011;10050;55.492;13.506;2023-02-11T17:01:32;30.00;;;6.23;;
19780;SDS011;10050;55.492;13.506;2023-02-11T17:03:58;29.20;;;6.43;;
19780;SDS011;10050;55.492;13.506;2023-02-11T17:06:24;34.03;;;7.20;;
19780;SDS011;10050;55.492;13.506;2023-02-11T17:08:51;27.83;;;5.93;;
19780;SDS011;10050;55.492;13.506;2023-02-11T17:11:17;28.27;;;6.50;;
19780;SDS011;10050;55.492;13.506;2023-02-11T17:13:43;29.17;;;6.60;;